createdAt,value
2019-03-22T00:00:32.809Z,79.65
2019-03-22T00:03:02.258Z,79.95
2019-03-22T00:05:31.679Z,80.37
2019-03-22T00:08:01.669Z,80.81
2019-03-22T00:10:31.093Z,80.97
2019-03-22T00:13:00.653Z,81.18
2019-03-22T00:15:30.075Z,81.26
2019-03-22T00:17:59.515Z,81.59
2019-03-22T00:20:29.420Z,81.18
2019-03-22T00:22:58.865Z,81.25
2019-03-22T00:25:28.296Z,81.39
2019-03-22T00:27:58.634Z,81.30
2019-03-22T00:30:28.640Z,81.69
2019-03-22T00:32:58.629Z,81.98
2019-03-22T00:35:28.155Z,82.43
2019-03-22T00:37:57.609Z,82.88
2019-03-22T00:40:27.023Z,82.95
2019-03-22T00:42:56.898Z,82.75
2019-03-22T00:45:26.318Z,82.99
2019-03-22T00:47:55.764Z,83.32
2019-03-22T00:50:25.193Z,83.59
2019-03-22T00:52:54.637Z,83.87
2019-03-22T00:55:24.054Z,83.44
2019-03-22T00:57:53.505Z,83.70
2019-03-22T01:00:22.935Z,83.53
2019-03-22T01:02:52.393Z,83.46
2019-03-22T01:05:21.804Z,83.44
2019-03-22T01:07:51.250Z,83.32
2019-03-22T01:10:20.697Z,83.40
2019-03-22T01:12:50.118Z,83.76
2019-03-22T01:15:19.573Z,83.40
2019-03-22T01:17:48.996Z,83.39
2019-03-22T01:20:18.452Z,83.22
2019-03-22T01:22:47.869Z,83.24
2019-03-22T01:25:17.318Z,83.08
2019-03-22T01:27:46.749Z,82.87
2019-03-22T01:30:17.228Z,82.90
2019-03-22T01:32:46.645Z,82.81
2019-03-22T01:35:16.085Z,82.60
2019-03-22T01:37:45.507Z,83.43
2019-03-22T01:40:16.584Z,83.44
2019-03-22T01:42:46.011Z,83.45
2019-03-22T01:45:16.403Z,83.71
2019-03-22T01:47:45.863Z,83.66
2019-03-22T01:50:17.379Z,83.73
2019-03-22T01:52:46.801Z,83.78
2019-03-22T01:55:16.248Z,83.89
2019-03-22T01:57:53.123Z,83.83
2019-03-22T02:00:17.776Z,84.42
2019-03-22T02:02:47.218Z,84.11
2019-03-22T02:05:16.667Z,84.14
2019-03-22T02:07:46.091Z,84.15
2019-03-22T02:10:15.547Z,84.45
2019-03-22T02:12:44.959Z,84.56
2019-03-22T02:15:16.233Z,84.78
2019-03-22T02:17:45.663Z,84.42
2019-03-22T02:20:15.850Z,84.38
2019-03-22T02:22:45.265Z,84.59
2019-03-22T02:25:14.713Z,84.65
2019-03-22T02:27:44.132Z,85.21
2019-03-22T02:30:15.145Z,85.47
2019-03-22T02:32:44.543Z,84.81
2019-03-22T02:35:27.669Z,84.56
2019-03-22T02:37:45.314Z,84.80
2019-03-22T02:40:14.757Z,84.59
2019-03-22T02:42:44.171Z,84.21
2019-03-22T02:45:15.309Z,84.12
2019-03-22T02:47:44.749Z,84.20
2019-03-22T02:50:18.476Z,83.99
2019-03-22T02:52:45.808Z,83.65
2019-03-22T02:55:15.269Z,83.88
2019-03-22T02:57:44.693Z,83.50
2019-03-22T03:00:15.691Z,83.37
2019-03-22T03:02:45.095Z,83.31
2019-03-22T03:05:15.615Z,83.05
2019-03-22T03:07:45.028Z,83.43
2019-03-22T03:10:15.516Z,83.21
2019-03-22T03:12:44.941Z,83.02
2019-03-22T03:15:16.401Z,83.29
2019-03-22T03:17:45.812Z,83.45
2019-03-22T03:20:17.254Z,83.42
2019-03-22T03:22:46.803Z,83.90
2019-03-22T03:25:16.413Z,84.08
2019-03-22T03:27:45.840Z,84.25
2019-03-22T03:30:20.844Z,83.84
2019-03-22T03:32:50.301Z,84.11
2019-03-22T03:35:19.750Z,83.53
2019-03-22T03:37:49.183Z,83.77
2019-03-22T03:40:18.613Z,83.90
2019-03-22T03:42:48.043Z,84.00
2019-03-22T03:45:33.970Z,83.78
2019-03-22T03:48:05.576Z,83.92
2019-03-22T03:50:35.027Z,84.25
2019-03-22T03:53:04.688Z,84.01
2019-03-22T03:55:34.207Z,83.62
2019-03-22T03:58:03.629Z,83.76
2019-03-22T04:00:33.098Z,83.76
2019-03-22T04:03:02.517Z,83.68
2019-03-22T04:05:31.955Z,83.47
2019-03-22T04:08:01.396Z,83.57
2019-03-22T04:10:30.832Z,83.67
2019-03-22T04:13:00.285Z,83.86
2019-03-22T04:15:29.696Z,83.81
2019-03-22T04:17:59.220Z,83.85
2019-03-22T04:20:28.663Z,83.92
2019-03-22T04:22:58.119Z,84.03
2019-03-22T04:25:27.678Z,83.99
2019-03-22T04:27:57.241Z,83.79
2019-03-22T04:30:26.692Z,83.72
2019-03-22T04:32:56.119Z,83.59
2019-03-22T04:35:25.551Z,83.39
2019-03-22T04:37:54.995Z,83.44
2019-03-22T04:40:26.633Z,83.24
2019-03-22T04:42:56.072Z,83.21
2019-03-22T04:45:26.737Z,83.13
2019-03-22T04:48:08.291Z,83.14
2019-03-22T04:50:39.169Z,83.10
2019-03-22T04:53:09.390Z,82.93
2019-03-22T04:55:38.815Z,82.97
2019-03-22T04:58:08.280Z,82.82
2019-03-22T05:00:37.700Z,82.97
2019-03-22T05:03:07.150Z,82.75
2019-03-22T05:05:36.575Z,82.83
2019-03-22T05:08:06.034Z,82.89
2019-03-22T05:10:35.458Z,82.74
2019-03-22T05:13:04.911Z,82.75
2019-03-22T05:15:34.340Z,82.86
2019-03-22T05:18:03.995Z,82.84
2019-03-22T05:20:33.429Z,82.76
2019-03-22T05:23:03.506Z,82.84
2019-03-22T05:25:32.923Z,82.72
2019-03-22T05:28:02.372Z,82.61
2019-03-22T05:30:58.989Z,82.58
2019-03-22T05:33:29.041Z,82.62
2019-03-22T05:35:58.463Z,82.53
2019-03-22T05:38:27.918Z,82.44
2019-03-22T05:40:57.329Z,82.40
2019-03-22T05:43:27.244Z,82.25
2019-03-22T05:45:56.662Z,82.33
2019-03-22T05:48:26.112Z,82.28
2019-03-22T05:50:55.569Z,82.58
2019-03-22T05:53:28.383Z,82.77
2019-03-22T05:55:57.793Z,82.61
2019-03-22T05:58:27.395Z,82.37
2019-03-22T06:00:56.819Z,82.49
2019-03-22T06:03:26.383Z,82.38
2019-03-22T06:05:55.799Z,82.34
2019-03-22T06:08:25.251Z,82.29
2019-03-22T06:10:54.671Z,82.41
2019-03-22T06:13:24.192Z,82.74
2019-03-22T06:15:53.613Z,83.00
2019-03-22T06:18:23.087Z,82.82
2019-03-22T06:20:52.507Z,82.95
2019-03-22T06:23:21.956Z,82.68
2019-03-22T06:25:51.371Z,82.37
2019-03-22T06:28:20.827Z,82.29
2019-03-22T06:30:50.256Z,82.01
2019-03-22T06:33:19.715Z,81.63
2019-03-22T06:35:49.193Z,81.57
2019-03-22T06:38:18.649Z,81.30
2019-03-22T06:40:48.102Z,81.10
2019-03-22T06:43:17.775Z,80.86
2019-03-22T06:45:47.239Z,80.83
2019-03-22T06:48:16.664Z,81.04
2019-03-22T06:50:46.131Z,81.33
2019-03-22T06:53:15.612Z,81.37
2019-03-22T06:55:45.084Z,80.94
2019-03-22T06:58:14.511Z,80.55
2019-03-22T07:00:44.139Z,80.21
2019-03-22T07:03:13.558Z,79.73
2019-03-22T07:05:43.034Z,79.86
2019-03-22T07:08:12.441Z,79.66
2019-03-22T07:10:41.893Z,79.75
2019-03-22T07:13:11.320Z,79.42
2019-03-22T07:15:40.783Z,79.38
2019-03-22T07:18:10.248Z,79.24
2019-03-22T07:20:39.671Z,79.01
2019-03-22T07:23:09.096Z,78.91
2019-03-22T07:25:38.561Z,79.00
2019-03-22T07:28:08.022Z,79.25
2019-03-22T07:30:37.478Z,79.27
2019-03-22T07:33:09.096Z,79.35
2019-03-22T07:35:38.556Z,79.22
2019-03-22T07:38:07.975Z,79.34
2019-03-22T07:40:37.437Z,78.94
2019-03-22T07:43:06.855Z,78.81
2019-03-22T07:45:36.309Z,78.67
2019-03-22T07:48:05.727Z,78.55
2019-03-22T07:50:35.184Z,78.32
2019-03-22T07:53:04.607Z,78.05
2019-03-22T07:55:34.112Z,77.78
2019-03-22T07:58:03.499Z,78.42
2019-03-22T08:00:32.953Z,77.80
2019-03-22T08:03:02.596Z,77.94
2019-03-22T08:05:32.060Z,77.94
2019-03-22T08:08:01.481Z,77.43
2019-03-22T08:10:30.941Z,77.54
2019-03-22T08:13:00.387Z,77.59
2019-03-22T08:15:31.063Z,77.58
2019-03-22T08:18:00.760Z,77.08
2019-03-22T08:20:30.634Z,77.01
2019-03-22T08:23:01.498Z,77.08
2019-03-22T08:25:32.443Z,77.10
2019-03-22T08:28:02.061Z,76.42
2019-03-22T08:30:42.386Z,76.46
2019-03-22T08:33:05.188Z,76.78
2019-03-22T08:35:34.804Z,76.69
2019-03-22T08:38:04.601Z,76.90
2019-03-22T08:40:35.015Z,76.67
2019-03-22T08:43:04.582Z,76.47
2019-03-22T08:45:34.015Z,76.32
2019-03-22T08:48:03.448Z,76.20
2019-03-22T08:50:32.895Z,76.73
2019-03-22T08:53:02.332Z,76.14
2019-03-22T08:55:32.024Z,76.08
2019-03-22T08:58:02.552Z,75.87
2019-03-22T09:00:39.185Z,76.23
2019-03-22T09:03:03.981Z,76.34
2019-03-22T09:05:33.808Z,76.71
2019-03-22T09:08:03.267Z,76.21
2019-03-22T09:10:32.719Z,76.27
2019-03-22T09:13:02.479Z,75.88
2019-03-22T09:15:40.958Z,76.24
2019-03-22T09:18:03.067Z,74.68
2019-03-22T09:20:32.549Z,74.78
2019-03-22T09:23:02.010Z,75.15
2019-03-22T09:25:31.430Z,75.25
2019-03-22T09:28:00.903Z,74.87
2019-03-22T09:30:30.434Z,74.85
2019-03-22T09:33:00.075Z,75.37
2019-03-22T09:35:29.491Z,75.39
2019-03-22T09:38:12.025Z,75.48
2019-03-22T09:40:30.075Z,75.51
2019-03-22T09:42:59.581Z,74.59
2019-03-22T09:45:28.974Z,74.77
2019-03-22T09:47:58.445Z,74.51
2019-03-22T09:50:27.837Z,74.04
2019-03-22T09:52:57.499Z,74.18
2019-03-22T09:55:27.024Z,73.91
2019-03-22T09:57:56.493Z,73.77
2019-03-22T10:00:28.367Z,74.17
2019-03-22T10:02:57.854Z,74.65
2019-03-22T10:05:27.280Z,74.52
2019-03-22T10:07:56.721Z,74.32
2019-03-22T10:10:26.176Z,74.49
2019-03-22T10:12:55.715Z,73.60
2019-03-22T10:15:25.271Z,73.51
2019-03-22T10:17:54.845Z,73.67
2019-03-22T10:20:24.219Z,73.25
2019-03-22T10:22:53.671Z,73.71
2019-03-22T10:25:23.137Z,73.66
2019-03-22T10:27:52.675Z,73.25
2019-03-22T10:30:22.124Z,72.95
2019-03-22T10:32:51.582Z,72.87
2019-03-22T10:35:26.380Z,72.79
2019-03-22T10:38:00.112Z,72.74
2019-03-22T10:40:23.286Z,72.63
2019-03-22T10:42:55.089Z,72.58
2019-03-22T10:45:25.126Z,71.84
2019-03-22T10:47:56.109Z,72.15
2019-03-22T10:50:26.687Z,71.98
2019-03-22T10:53:05.008Z,71.63
2019-03-22T10:55:37.860Z,71.91
2019-03-22T10:58:20.967Z,72.18
2019-03-22T11:00:48.755Z,71.82
2019-03-22T11:03:30.745Z,72.16
2019-03-22T11:06:02.347Z,72.29
2019-03-22T11:08:38.786Z,72.45
2019-03-22T11:11:14.484Z,71.19
2019-03-22T11:13:47.962Z,71.60
2019-03-22T11:16:23.780Z,71.65
2019-03-22T11:19:16.803Z,71.73
2019-03-22T11:21:48.298Z,71.73
2019-03-22T11:27:14.012Z,72.01
2019-03-22T11:29:47.588Z,71.18
2019-03-22T11:32:19.771Z,71.06
2019-03-22T11:34:52.570Z,71.43
2019-03-22T11:37:24.988Z,71.80
2019-03-22T11:39:58.435Z,71.64
2019-03-22T11:42:30.982Z,71.11
2019-03-22T11:45:05.832Z,71.22
2019-03-22T11:47:43.706Z,71.48
2019-03-22T11:50:17.716Z,71.74
2019-03-22T11:52:47.648Z,71.97
2019-03-22T11:55:17.123Z,72.23
2019-03-22T11:57:47.983Z,71.83
2019-03-22T12:00:23.323Z,71.89
2019-03-22T12:02:55.844Z,72.19
2019-03-22T12:05:27.131Z,71.88
2019-03-22T12:07:56.837Z,72.03
2019-03-22T12:10:26.279Z,71.56
2019-03-22T12:12:55.698Z,71.99
2019-03-22T12:15:25.143Z,71.62
2019-03-22T12:17:54.562Z,71.30
2019-03-22T12:20:24.282Z,71.72
2019-03-22T12:22:53.712Z,71.54
2019-03-22T12:25:25.386Z,71.15
2019-03-22T12:27:54.814Z,71.74
2019-03-22T12:30:24.343Z,71.75
2019-03-22T12:32:53.770Z,72.12
2019-03-22T12:35:23.212Z,71.76
2019-03-22T12:37:52.625Z,71.47
2019-03-22T12:40:22.513Z,71.58
2019-03-22T12:42:51.934Z,71.43
2019-03-22T12:45:25.930Z,71.22
2019-03-22T12:47:55.352Z,70.98
2019-03-22T12:50:24.799Z,70.99
2019-03-22T12:52:54.224Z,71.30
2019-03-22T12:55:23.673Z,72.28
2019-03-22T12:57:53.094Z,72.31
2019-03-22T13:00:23.288Z,71.81
2019-03-22T13:02:52.746Z,72.12
2019-03-22T13:05:22.208Z,72.51
2019-03-22T13:07:51.699Z,73.00
2019-03-22T13:10:24.766Z,72.76
2019-03-22T13:12:54.193Z,72.98
2019-03-22T13:15:23.662Z,73.13
2019-03-22T13:17:53.087Z,73.25
2019-03-22T13:20:22.577Z,73.24
2019-03-22T13:22:52.001Z,73.29
2019-03-22T13:25:21.529Z,72.78
2019-03-22T13:27:50.961Z,72.51
2019-03-22T13:30:32.547Z,72.61
2019-03-22T13:33:01.974Z,73.27
2019-03-22T13:35:32.762Z,73.58
2019-03-22T13:38:02.244Z,73.55
2019-03-22T13:40:31.795Z,73.67
2019-03-22T13:43:02.192Z,73.29
2019-03-22T13:45:32.683Z,73.34
2019-03-22T13:48:03.741Z,73.44
2019-03-22T13:50:33.214Z,73.43
2019-03-22T13:53:02.765Z,73.84
2019-03-22T13:55:32.786Z,73.61
2019-03-22T13:58:02.224Z,73.70
2019-03-22T14:00:31.800Z,73.54
2019-03-22T14:03:02.978Z,73.26
2019-03-22T14:05:32.651Z,73.28
2019-03-22T14:08:02.113Z,73.12
2019-03-22T14:10:35.538Z,73.19
2019-03-22T14:13:06.137Z,73.36
2019-03-22T14:15:35.586Z,73.44
2019-03-22T14:18:05.532Z,73.24
2019-03-22T14:20:35.639Z,72.96
2019-03-22T14:23:05.091Z,73.05
2019-03-22T14:25:34.521Z,73.33
2019-03-22T14:28:03.979Z,73.57
2019-03-22T14:30:33.417Z,73.31
2019-03-22T14:33:12.609Z,73.19
2019-03-22T14:35:33.997Z,73.07
2019-03-22T14:38:03.834Z,73.30
2019-03-22T14:40:33.255Z,73.37
2019-03-22T14:43:02.715Z,73.25
2019-03-22T14:45:32.138Z,73.70
2019-03-22T14:48:02.083Z,73.94
2019-03-22T14:50:31.509Z,73.90
2019-03-22T14:53:00.964Z,74.16
2019-03-22T14:55:30.390Z,74.23
2019-03-22T14:57:59.846Z,74.36
2019-03-22T15:00:29.284Z,74.58
2019-03-22T15:02:58.732Z,74.95
2019-03-22T15:05:28.155Z,75.08
2019-03-22T15:07:57.604Z,75.14
2019-03-22T15:10:27.024Z,75.28
2019-03-22T15:12:56.484Z,75.30
2019-03-22T15:15:27.957Z,75.46
2019-03-22T15:18:02.043Z,75.85
2019-03-22T15:20:33.103Z,76.07
2019-03-22T15:23:16.070Z,76.35
2019-03-22T15:25:49.580Z,76.34
2019-03-22T15:28:37.072Z,76.55
2019-03-22T15:31:08.139Z,76.72
2019-03-22T15:33:55.147Z,76.80
2019-03-22T15:36:42.140Z,76.48
2019-03-22T15:39:19.410Z,77.02
2019-03-22T15:41:48.928Z,77.05
2019-03-22T15:44:18.489Z,76.66
2019-03-22T15:46:48.002Z,77.25
2019-03-22T15:49:17.450Z,77.48
2019-03-22T15:51:48.804Z,77.43
2019-03-22T15:54:18.029Z,77.70
2019-03-22T15:56:47.461Z,77.55
2019-03-22T15:59:16.916Z,77.28
2019-03-22T16:01:46.379Z,76.90
2019-03-22T16:04:15.810Z,77.01
2019-03-22T16:06:45.258Z,76.99
2019-03-22T16:09:14.685Z,77.16
2019-03-22T16:11:44.135Z,77.11
2019-03-22T16:14:13.555Z,76.84
2019-03-22T16:16:43.009Z,77.15
2019-03-22T16:19:12.433Z,77.35
2019-03-22T16:21:41.888Z,77.66
2019-03-22T16:24:11.324Z,77.76
2019-03-22T16:26:40.781Z,77.68
2019-03-22T16:29:10.213Z,77.90
2019-03-22T16:31:39.677Z,77.89
2019-03-22T16:34:09.112Z,77.83
2019-03-22T16:36:38.564Z,77.59
2019-03-22T16:39:08.774Z,77.55
2019-03-22T16:41:38.236Z,77.63
2019-03-22T16:44:07.673Z,77.99
2019-03-22T16:46:37.129Z,77.88
2019-03-22T16:49:06.943Z,77.70
2019-03-22T16:51:36.400Z,77.67
2019-03-22T16:54:05.835Z,77.83
2019-03-22T16:56:35.775Z,78.14
2019-03-22T16:59:05.198Z,78.07
2019-03-22T17:01:34.953Z,77.64
2019-03-22T17:04:04.887Z,77.76
2019-03-22T17:06:34.947Z,77.82
2019-03-22T17:09:05.738Z,78.07
2019-03-22T17:11:35.197Z,78.24
2019-03-22T17:14:04.949Z,78.52
2019-03-22T17:16:34.366Z,79.10
2019-03-22T17:19:04.001Z,79.12
2019-03-22T17:21:33.435Z,79.26
2019-03-22T17:24:02.906Z,79.14
2019-03-22T17:26:32.767Z,79.31
2019-03-22T17:29:02.224Z,79.24
2019-03-22T17:31:31.648Z,79.62
2019-03-22T17:34:01.094Z,79.64
2019-03-22T17:36:30.514Z,79.62
2019-03-22T17:38:59.965Z,80.13
2019-03-22T17:41:29.399Z,79.02
2019-03-22T17:43:58.840Z,79.46
2019-03-22T17:46:28.279Z,79.79
2019-03-22T17:48:57.725Z,80.00
2019-03-22T17:51:27.142Z,80.20
2019-03-22T17:53:56.600Z,80.51
2019-03-22T17:56:26.023Z,80.17
2019-03-22T17:58:55.471Z,80.39
2019-03-22T18:01:24.889Z,81.29
2019-03-22T18:03:54.335Z,80.87
2019-03-22T18:06:23.783Z,81.25
2019-03-22T18:08:53.233Z,81.62
2019-03-22T18:11:22.653Z,82.37
2019-03-22T18:13:52.112Z,81.51
2019-03-22T18:16:21.538Z,81.71
2019-03-22T18:18:50.993Z,81.65
2019-03-22T18:21:20.418Z,81.49
2019-03-22T18:23:50.076Z,81.70
2019-03-22T18:26:19.515Z,81.97
2019-03-22T18:28:48.968Z,82.24
2019-03-22T18:31:18.393Z,82.99
2019-03-22T18:33:47.843Z,82.93
2019-03-22T18:36:17.266Z,82.70
2019-03-22T18:38:46.714Z,83.26
2019-03-22T18:41:16.139Z,83.39
2019-03-22T18:43:45.602Z,83.80
2019-03-22T18:46:15.021Z,83.76
2019-03-22T18:48:44.474Z,83.52
2019-03-22T18:51:13.902Z,83.10
2019-03-22T18:53:43.353Z,82.76
2019-03-22T18:56:12.769Z,82.62
2019-03-22T18:58:42.424Z,82.44
2019-03-22T19:01:11.848Z,82.21
2019-03-22T19:03:41.310Z,82.22
2019-03-22T19:06:10.746Z,82.53
2019-03-22T19:08:40.202Z,82.46
2019-03-22T19:11:09.639Z,82.43
2019-03-22T19:13:39.099Z,82.37
2019-03-22T19:16:08.550Z,82.64
2019-03-22T19:18:39.452Z,82.60
2019-03-22T19:21:08.912Z,82.50
2019-03-22T19:23:38.335Z,82.47
2019-03-22T19:26:07.795Z,82.15
2019-03-22T19:28:37.223Z,82.39
2019-03-22T19:31:06.969Z,82.35
2019-03-22T19:33:36.923Z,82.39
2019-03-22T19:36:06.387Z,82.56
2019-03-22T19:38:35.815Z,82.70
2019-03-22T19:41:05.264Z,83.36
2019-03-22T19:43:34.696Z,83.35
2019-03-22T19:46:04.327Z,83.74
2019-03-22T19:48:34.098Z,83.41
2019-03-22T19:51:03.606Z,83.26
2019-03-22T19:53:33.039Z,83.60
2019-03-22T19:56:02.518Z,83.55
2019-03-22T19:58:31.939Z,83.65
2019-03-22T20:01:02.011Z,83.69
2019-03-22T20:03:31.440Z,83.76
2019-03-22T20:06:00.891Z,83.75
2019-03-22T20:08:30.330Z,84.02
2019-03-22T20:11:00.287Z,84.28
2019-03-22T20:13:29.722Z,84.45
2019-03-22T20:15:59.169Z,84.60
2019-03-22T20:18:28.598Z,84.67
2019-03-22T20:20:58.058Z,84.57
2019-03-22T20:23:27.496Z,84.68
2019-03-22T20:25:56.939Z,84.41
2019-03-22T20:28:26.366Z,84.30
2019-03-22T20:30:55.847Z,84.14
2019-03-22T20:33:25.244Z,84.13
2019-03-22T20:35:54.714Z,83.93
2019-03-22T20:38:24.170Z,83.57
2019-03-22T20:40:53.620Z,83.01
2019-03-22T20:43:23.042Z,82.84
2019-03-22T20:45:52.488Z,82.51
2019-03-22T20:48:21.916Z,82.27
2019-03-22T20:50:51.360Z,81.39
2019-03-22T20:53:20.779Z,81.64
2019-03-22T20:55:50.231Z,81.69
2019-03-22T20:58:19.649Z,81.55
2019-03-22T21:00:49.123Z,80.89
2019-03-22T21:03:18.550Z,81.21
2019-03-22T21:05:47.999Z,80.61
2019-03-22T21:08:17.418Z,80.69
2019-03-22T21:10:46.872Z,80.70
2019-03-22T21:13:16.292Z,80.59
2019-03-22T21:15:45.748Z,80.53
2019-03-22T21:18:15.199Z,80.32
2019-03-22T21:20:44.650Z,80.59
2019-03-22T21:23:14.091Z,80.54
2019-03-22T21:25:43.515Z,80.67
2019-03-22T21:28:12.969Z,80.66
2019-03-22T21:30:42.391Z,80.60
2019-03-22T21:33:11.847Z,80.49
2019-03-22T21:35:41.427Z,80.60
2019-03-22T21:38:11.482Z,80.59
2019-03-22T21:40:41.003Z,80.49
2019-03-22T21:43:10.487Z,80.21
2019-03-22T21:45:39.913Z,80.19
2019-03-22T21:48:09.379Z,79.60
2019-03-22T21:50:38.904Z,79.61
2019-03-22T21:53:08.368Z,79.45
2019-03-22T21:55:37.799Z,79.33
2019-03-22T21:58:07.258Z,79.45
2019-03-22T22:00:37.194Z,79.43
2019-03-22T22:03:06.643Z,79.67
2019-03-22T22:05:36.071Z,79.48
2019-03-22T22:08:06.002Z,79.39
2019-03-22T22:10:35.426Z,79.15
2019-03-22T22:13:05.203Z,79.36
2019-03-22T22:15:34.631Z,79.46
2019-03-22T22:18:04.078Z,79.20
2019-03-22T22:20:33.504Z,79.13
2019-03-22T22:23:03.569Z,79.09
2019-03-22T22:25:32.986Z,79.08
2019-03-22T22:28:03.092Z,79.10
2019-03-22T22:30:32.524Z,79.16
2019-03-22T22:33:02.147Z,79.15
2019-03-22T22:35:31.569Z,79.21
2019-03-22T22:38:01.023Z,78.93
2019-03-22T22:40:30.754Z,79.05
2019-03-22T22:43:00.415Z,79.10
2019-03-22T22:45:29.845Z,79.00
2019-03-22T22:47:59.296Z,79.05
2019-03-22T22:50:28.714Z,78.94
2019-03-22T22:52:58.157Z,79.00
2019-03-22T22:55:27.583Z,79.12
2019-03-22T22:57:57.041Z,79.19
2019-03-22T23:00:27.859Z,79.17
2019-03-22T23:02:57.297Z,79.22
2019-03-22T23:05:26.722Z,79.40
2019-03-22T23:07:56.176Z,79.50
2019-03-22T23:10:25.597Z,79.38
2019-03-22T23:12:55.051Z,79.23
2019-03-22T23:15:24.543Z,79.36
2019-03-22T23:17:54.007Z,79.01
2019-03-22T23:20:23.444Z,78.91
2019-03-22T23:22:52.909Z,79.25
2019-03-22T23:25:22.342Z,78.83
2019-03-22T23:27:51.792Z,78.80
2019-03-22T23:30:21.213Z,79.15
2019-03-22T23:32:50.662Z,79.63
2019-03-22T23:35:20.083Z,79.43
2019-03-22T23:37:49.529Z,79.58
2019-03-22T23:40:18.972Z,79.99
2019-03-22T23:42:48.390Z,80.13
2019-03-22T23:45:17.836Z,80.43
2019-03-22T23:47:47.253Z,81.06
2019-03-22T23:50:16.694Z,80.79
2019-03-22T23:52:46.125Z,81.32
2019-03-22T23:55:15.582Z,81.18
2019-03-22T23:57:45.010Z,81.44
